Time;durP1;ratioP1;P1;durP2;ratioP2;P2;SDS_P1;SDS_P2;PMS_P1;PMS_P2;Temp;Humidity;BMP_temperature;BMP_pressure;BME280_temperature;BME280_humidity;BME280_pressure;Samples;Min_cycle;Max_cycle;Signal;HPM_P1;HPM_P2
2022/11/20 00:00:01;;;;;;;8.37;7.40;;;12.10;63.30;;;;;;5027650;28;20623;-59
2022/11/20 00:02:27;;;;;;;9.83;7.80;;;12.10;63.40;;;;;;5021080;28;20273;-59
2022/11/20 00:04:52;;;;;;;9.40;7.20;;;12.10;63.60;;;;;;5029061;28;20205;-59
2022/11/20 00:07:18;;;;;;;25.63;18.10;;;12.10;63.50;;;;;;5028153;28;20197;-59
2022/11/20 00:09:43;;;;;;;17.27;13.17;;;12.20;63.60;;;;;;5026198;28;20196;-59
2022/11/20 00:12:09;;;;;;;12.80;10.10;;;12.10;63.50;;;;;;5026898;28;20220;-59
2022/11/20 00:14:35;;;;;;;11.00;9.20;;;12.10;63.40;;;;;;5027121;28;20193;-59
2022/11/20 00:17:00;;;;;;;8.50;7.67;;;12.10;64.20;;;;;;5030439;28;20280;-59
2022/11/20 00:19:26;;;;;;;8.70;7.37;;;12.10;63.40;;;;;;5024016;28;20220;-58
2022/11/20 00:21:53;;;;;;;10.10;8.10;;;12.10;63.50;;;;;;5022861;28;20224;-59
2022/11/20 00:24:19;;;;;;;10.73;8.70;;;12.10;63.60;;;;;;5024051;28;20200;-59
2022/11/20 00:26:44;;;;;;;9.40;7.23;;;12.10;63.60;;;;;;5016340;28;20440;-58
2022/11/20 00:29:10;;;;;;;9.20;8.30;;;12.10;63.80;;;;;;5022011;28;20726;-59
2022/11/20 00:31:36;;;;;;;10.43;8.23;;;12.00;63.80;;;;;;5025544;28;20203;-59
2022/11/20 00:34:02;;;;;;;10.77;8.47;;;12.10;63.80;;;;;;5024003;28;20715;-59
2022/11/20 00:36:29;;;;;;;8.77;7.87;;;12.10;63.70;;;;;;5027765;28;20649;-59
2022/11/20 00:38:56;;;;;;;10.37;8.77;;;12.00;63.70;;;;;;5031043;28;20948;-58
2022/11/20 00:41:23;;;;;;;10.00;8.33;;;12.00;63.70;;;;;;5032245;28;20447;-59
2022/11/20 00:43:49;;;;;;;10.07;8.30;;;12.00;63.90;;;;;;5029728;28;20455;-59
2022/11/20 00:46:17;;;;;;;9.63;8.63;;;12.00;64.00;;;;;;5024494;28;20467;-58
2022/11/20 00:48:43;;;;;;;12.30;8.90;;;12.00;64.10;;;;;;5025597;28;20934;-59
2022/11/20 00:51:10;;;;;;;11.10;8.97;;;12.00;63.90;;;;;;5020576;28;20452;-59
2022/11/20 00:53:36;;;;;;;10.77;8.17;;;12.00;63.90;;;;;;5023349;28;20527;-59
2022/11/20 00:56:07;;;;;;;10.30;9.20;;;12.00;64.00;;;;;;5028043;28;20559;-58
2022/11/20 00:58:35;;;;;;;10.47;8.90;;;12.00;64.00;;;;;;5031148;28;20232;-59
2022/11/20 01:01:25;;;;;;;11.33;7.47;;;12.00;64.00;;;;;;5028143;28;20475;-59
2022/11/20 01:03:56;;;;;;;9.60;7.80;;;11.90;64.00;;;;;;5031363;28;20448;-58
2022/11/20 01:06:25;;;;;;;10.37;8.50;;;11.90;64.10;;;;;;5029410;28;20451;-57
2022/11/20 01:08:52;;;;;;;10.70;7.87;;;12.00;64.10;;;;;;5029854;28;20435;-59
2022/11/20 01:11:23;;;;;;;9.27;7.97;;;12.00;64.00;;;;;;5030119;28;20446;-58
2022/11/20 01:13:51;;;;;;;8.47;7.57;;;12.00;64.10;;;;;;5019263;28;20452;-57
2022/11/20 01:16:27;;;;;;;12.50;8.17;;;12.00;64.20;;;;;;5022346;28;20494;-58
2022/11/20 01:18:57;;;;;;;8.93;8.00;;;12.00;64.30;;;;;;5028514;28;20487;-57
2022/11/20 01:21:34;;;;;;;8.20;6.87;;;12.00;64.20;;;;;;5025669;28;20474;-58
2022/11/20 01:24:00;;;;;;;9.57;7.10;;;12.10;64.10;;;;;;5022623;28;20532;-58
2022/11/20 01:26:29;;;;;;;8.93;7.00;;;12.10;64.00;;;;;;5025498;28;20440;-57
2022/11/20 01:28:56;;;;;;;9.10;7.50;;;12.10;63.90;;;;;;5024949;28;20440;-57
2022/11/20 01:31:27;;;;;;;8.67;7.77;;;12.10;63.80;;;;;;5024662;28;20467;-58
2022/11/20 01:33:59;;;;;;;8.53;7.10;;;12.10;63.90;;;;;;5026892;28;21013;-58
2022/11/20 01:36:27;;;;;;;9.57;7.13;;;12.00;63.80;;;;;;5025631;28;20444;-58
2022/11/20 01:38:55;;;;;;;9.83;7.90;;;11.80;64.00;;;;;;5019896;28;20543;-58
2022/11/20 01:44:07;;;;;;;9.33;8.10;;;11.90;64.50;;;;;;5028026;28;20574;-58
2022/11/20 01:46:36;;;;;;;9.90;8.00;;;12.00;64.30;;;;;;5025857;28;20443;-58
2022/11/20 01:49:12;;;;;;;10.40;7.87;;;12.00;64.40;;;;;;5028079;28;20451;-58
2022/11/20 01:51:59;;;;;;;10.77;7.80;;;12.00;64.50;;;;;;5026201;28;20435;-58
2022/11/20 01:54:34;;;;;;;10.30;7.60;;;12.00;64.30;;;;;;5026905;28;20452;-58
2022/11/20 01:57:00;;;;;;;9.37;7.93;;;12.00;64.00;;;;;;5026320;28;21012;-58
2022/11/20 01:59:28;;;;;;;8.70;7.27;;;12.10;63.80;;;;;;5021209;28;21659;-58
2022/11/20 02:01:54;;;;;;;7.80;6.23;;;12.00;63.50;;;;;;5024469;28;20862;-58
2022/11/20 02:04:20;;;;;;;10.10;7.80;;;12.00;63.50;;;;;;5022600;28;20444;-58
2022/11/20 02:06:51;;;;;;;7.67;6.87;;;12.00;63.30;;;;;;5023064;28;20805;-58
2022/11/20 02:09:17;;;;;;;8.73;7.80;;;12.00;63.10;;;;;;5023947;28;20437;-57
2022/11/20 02:11:43;;;;;;;8.63;7.07;;;11.90;63.00;;;;;;5023397;28;20804;-58
2022/11/20 02:14:09;;;;;;;7.80;6.30;;;11.90;62.90;;;;;;5025919;28;20336;-58
2022/11/20 02:16:39;;;;;;;7.87;6.80;;;11.80;62.90;;;;;;5021140;28;20185;-58
2022/11/20 02:19:11;;;;;;;7.67;6.53;;;11.90;62.80;;;;;;5028826;28;20563;-58
2022/11/20 02:22:13;;;;;;;8.57;7.40;;;11.90;62.70;;;;;;5025277;28;20472;-58
2022/11/20 02:24:39;;;;;;;10.83;6.23;;;11.90;62.60;;;;;;4992426;28;20451;-58
2022/11/20 02:27:09;;;;;;;9.30;7.10;;;11.90;62.40;;;;;;5023625;28;20785;-58
2022/11/20 02:29:46;;;;;;;7.23;6.00;;;11.90;62.40;;;;;;5026137;28;20524;-58
2022/11/20 02:32:21;;;;;;;5.70;5.10;;;11.90;62.40;;;;;;5019502;28;20444;-58
2022/11/20 02:34:47;;;;;;;6.53;4.73;;;11.90;62.40;;;;;;5021425;28;20447;-58
2022/11/20 02:37:14;;;;;;;5.00;4.50;;;11.90;62.10;;;;;;5027804;28;20440;-58
2022/11/20 02:39:41;;;;;;;4.33;3.87;;;11.90;61.80;;;;;;5025121;28;20197;-57
2022/11/20 02:42:06;;;;;;;6.40;4.80;;;12.00;61.60;;;;;;5025733;28;20447;-58
2022/11/20 02:44:32;;;;;;;6.03;4.47;;;12.00;61.10;;;;;;5031122;28;20440;-58
2022/11/20 02:46:59;;;;;;;4.90;4.00;;;12.10;60.90;;;;;;5030635;28;20657;-58
2022/11/20 02:49:24;;;;;;;4.80;4.10;;;12.10;60.70;;;;;;5032009;28;20707;-58
2022/11/20 02:51:50;;;;;;;4.30;3.70;;;12.10;60.80;;;;;;5030063;28;20440;-58
2022/11/20 02:54:16;;;;;;;3.60;3.30;;;12.10;60.70;;;;;;5030626;28;20189;-58
2022/11/20 02:56:41;;;;;;;4.37;3.40;;;12.10;60.60;;;;;;5031362;28;20197;-58
2022/11/20 02:59:07;;;;;;;5.77;4.20;;;12.20;60.90;;;;;;5031853;28;20574;-59
2022/11/20 03:01:33;;;;;;;4.50;4.10;;;12.20;60.90;;;;;;5021668;28;20186;-58
2022/11/20 03:03:59;;;;;;;4.43;4.03;;;12.20;61.00;;;;;;5029668;28;20304;-58
2022/11/20 03:06:24;;;;;;;4.10;3.70;;;12.20;61.30;;;;;;5031178;28;20428;-59
2022/11/20 03:08:50;;;;;;;4.20;3.80;;;12.20;61.40;;;;;;5030470;28;20336;-58
2022/11/20 03:11:16;;;;;;;4.20;3.20;;;12.10;61.30;;;;;;5030790;28;20276;-58
2022/11/20 03:13:42;;;;;;;2.90;2.70;;;12.20;61.20;;;;;;5031625;28;20208;-58
2022/11/20 03:16:11;;;;;;;3.70;2.70;;;12.00;60.50;;;;;;5030327;28;20531;-58
2022/11/20 03:18:37;;;;;;;2.60;2.40;;;11.90;60.70;;;;;;5030018;28;20279;-57
2022/11/20 03:21:03;;;;;;;3.43;2.73;;;11.80;60.00;;;;;;5029246;28;20484;-58
2022/11/20 03:23:31;;;;;;;2.80;2.60;;;11.70;60.40;;;;;;5029638;28;20443;-58
2022/11/20 03:26:16;;;;;;;3.33;2.30;;;11.70;60.60;;;;;;5030308;28;20902;-58
2022/11/20 03:28:47;;;;;;;2.70;2.50;;;11.80;60.60;;;;;;5031439;28;20427;-58
2022/11/20 03:31:14;;;;;;;4.63;2.33;;;11.90;60.40;;;;;;5029406;28;20447;-58
2022/11/20 03:33:41;;;;;;;3.63;2.50;;;11.90;60.30;;;;;;5029181;28;20447;-58
2022/11/20 03:36:13;;;;;;;2.97;2.70;;;11.90;60.20;;;;;;5030522;28;20440;-58
2022/11/20 03:38:39;;;;;;;3.10;2.80;;;11.80;60.40;;;;;;5032620;28;20938;-58
2022/11/20 03:41:11;;;;;;;3.10;2.70;;;11.70;60.60;;;;;;5028583;28;20436;-58
2022/11/20 03:43:37;;;;;;;3.23;2.70;;;11.40;60.90;;;;;;5026581;28;20459;-58
2022/11/20 03:46:04;;;;;;;4.37;3.07;;;11.40;62.40;;;;;;5030547;28;20432;-58
2022/11/20 03:48:29;;;;;;;2.90;2.63;;;11.50;61.40;;;;;;5026489;28;20440;-58
2022/11/20 03:51:13;;;;;;;2.70;2.50;;;11.60;61.00;;;;;;5029970;28;20444;-57
2022/11/20 03:53:45;;;;;;;4.30;3.13;;;11.50;60.80;;;;;;5031191;28;20201;-58
2022/11/20 03:56:12;;;;;;;3.17;2.90;;;11.40;60.80;;;;;;5028992;28;20440;-58
2022/11/20 03:58:40;;;;;;;3.23;3.00;;;11.50;61.00;;;;;;5029295;28;20498;-58
2022/11/20 04:01:15;;;;;;;3.20;2.90;;;11.50;60.90;;;;;;5030113;28;20446;-58
2022/11/20 04:03:42;;;;;;;4.37;3.00;;;11.70;60.70;;;;;;5029381;28;20448;-59
2022/11/20 04:06:19;;;;;;;6.00;3.50;;;11.80;60.50;;;;;;5028585;28;20448;-58
2022/11/20 04:08:45;;;;;;;5.07;3.07;;;11.80;60.30;;;;;;5030032;28;20444;-58
2022/11/20 04:11:13;;;;;;;3.30;3.00;;;11.90;60.40;;;;;;5029831;28;20440;-58
2022/11/20 04:13:40;;;;;;;3.37;3.10;;;11.90;60.20;;;;;;5029232;28;20247;-58
2022/11/20 04:16:07;;;;;;;3.37;3.07;;;11.90;60.00;;;;;;5027913;28;20444;-58
2022/11/20 04:18:34;;;;;;;2.90;2.70;;;11.70;59.80;;;;;;5029858;28;20534;-58
2022/11/20 04:21:00;;;;;;;3.90;2.77;;;11.80;59.80;;;;;;5029146;28;20541;-59
2022/11/20 04:23:26;;;;;;;3.20;2.90;;;11.60;59.90;;;;;;5029200;28;20468;-58
2022/11/20 04:25:52;;;;;;;3.03;2.73;;;11.40;60.40;;;;;;5027943;28;20436;-57
2022/11/20 04:28:17;;;;;;;3.53;2.63;;;11.40;60.60;;;;;;5030193;28;20935;-58
2022/11/20 04:30:43;;;;;;;3.40;3.03;;;11.50;60.40;;;;;;5028721;28;21769;-58
2022/11/20 04:33:09;;;;;;;2.70;2.50;;;11.40;60.10;;;;;;5034786;28;20562;-58
2022/11/20 04:35:35;;;;;;;6.27;2.83;;;11.50;60.20;;;;;;5035187;28;20193;-58
2022/11/20 04:38:01;;;;;;;3.77;3.20;;;11.60;60.10;;;;;;5031254;28;20765;-58
2022/11/20 04:40:28;;;;;;;2.87;2.63;;;11.60;59.70;;;;;;5041057;28;20415;-58
2022/11/20 04:42:54;;;;;;;3.00;2.67;;;11.50;59.90;;;;;;5030589;28;20921;-58
2022/11/20 04:45:20;;;;;;;3.10;2.80;;;11.40;60.10;;;;;;5025723;28;20451;-58
2022/11/20 04:47:45;;;;;;;4.10;2.53;;;11.30;60.20;;;;;;5019338;28;21172;-58
2022/11/20 04:50:11;;;;;;;3.40;3.00;;;11.30;60.20;;;;;;5023688;28;20652;-58
2022/11/20 04:52:37;;;;;;;2.93;2.60;;;11.30;60.40;;;;;;5028690;28;20193;-58
2022/11/20 04:55:02;;;;;;;3.33;2.90;;;11.20;60.50;;;;;;5026633;28;20193;-58
2022/11/20 04:57:28;;;;;;;3.30;2.90;;;11.30;60.40;;;;;;5022667;28;20276;-58
2022/11/20 04:59:53;;;;;;;4.77;2.60;;;11.40;60.60;;;;;;5027471;28;20189;-58
2022/11/20 05:02:20;;;;;;;4.53;3.30;;;11.60;60.30;;;;;;5022611;28;20193;-58
2022/11/20 05:04:45;;;;;;;3.90;3.10;;;11.60;60.10;;;;;;5022125;28;20824;-58
2022/11/20 05:07:11;;;;;;;2.60;2.40;;;11.60;59.50;;;;;;5021087;28;20448;-58
2022/11/20 05:09:36;;;;;;;6.07;3.30;;;11.60;59.50;;;;;;5027949;28;20189;-58
2022/11/20 05:12:02;;;;;;;2.70;2.40;;;11.70;59.50;;;;;;5023929;28;20275;-58
2022/11/20 05:14:27;;;;;;;3.90;3.17;;;11.70;59.30;;;;;;5021609;28;20204;-58
2022/11/20 05:16:53;;;;;;;3.43;2.57;;;11.70;59.50;;;;;;5029306;28;20549;-58
2022/11/20 05:19:19;;;;;;;3.33;3.03;;;11.80;59.40;;;;;;5018725;28;20217;-57
2022/11/20 05:21:44;;;;;;;4.30;3.00;;;11.90;59.30;;;;;;5028263;28;20229;-58
2022/11/20 05:24:10;;;;;;;3.47;3.27;;;11.80;59.10;;;;;;5024415;28;20200;-58
2022/11/20 05:26:35;;;;;;;2.93;2.60;;;11.90;59.00;;;;;;5023935;28;20273;-58
2022/11/20 05:29:01;;;;;;;3.23;2.80;;;11.90;58.80;;;;;;5024621;28;20567;-58
2022/11/20 05:31:27;;;;;;;3.70;2.93;;;12.00;58.80;;;;;;5028956;28;20396;-58
2022/11/20 05:33:52;;;;;;;2.97;2.77;;;12.00;59.20;;;;;;5027490;28;20199;-58
2022/11/20 05:36:18;;;;;;;4.63;2.90;;;11.90;58.80;;;;;;5028671;28;20197;-58
2022/11/20 05:38:44;;;;;;;4.60;2.70;;;12.00;58.80;;;;;;5026087;28;20771;-58
2022/11/20 05:41:15;;;;;;;2.83;2.63;;;12.00;58.50;;;;;;5027653;28;20279;-58
2022/11/20 05:43:42;;;;;;;4.80;2.53;;;12.00;58.70;;;;;;5027140;28;20660;-58
2022/11/20 05:46:10;;;;;;;2.60;2.40;;;12.10;58.60;;;;;;5032910;28;20471;-58
2022/11/20 05:48:37;;;;;;;2.60;2.40;;;12.10;58.40;;;;;;5031938;28;20463;-58
2022/11/20 05:51:05;;;;;;;2.60;2.40;;;12.10;58.30;;;;;;5031254;28;20468;-58
2022/11/20 05:53:32;;;;;;;2.90;2.70;;;12.10;58.30;;;;;;5033775;28;20420;-58
2022/11/20 05:55:59;;;;;;;2.90;2.30;;;12.20;58.40;;;;;;5031846;28;20590;-58
2022/11/20 05:58:25;;;;;;;4.00;3.00;;;12.10;58.40;;;;;;5030764;28;20495;-58
2022/11/20 06:00:53;;;;;;;2.60;2.40;;;12.20;58.80;;;;;;5027869;28;20447;-59
2022/11/20 06:03:19;;;;;;;2.70;2.50;;;12.10;58.70;;;;;;5020499;28;20210;-59
2022/11/20 06:05:45;;;;;;;7.00;2.30;;;12.20;58.70;;;;;;5028455;28;20435;-58
2022/11/20 06:08:10;;;;;;;3.27;2.10;;;12.10;58.70;;;;;;5022728;28;20190;-58
2022/11/20 06:10:36;;;;;;;2.67;2.47;;;12.10;59.30;;;;;;5016353;28;20323;-58
2022/11/20 06:13:01;;;;;;;3.00;2.57;;;11.90;58.50;;;;;;5028859;28;20204;-58
2022/11/20 06:15:27;;;;;;;2.43;2.27;;;11.90;58.50;;;;;;5026259;28;20208;-58
2022/11/20 06:17:53;;;;;;;3.07;2.77;;;11.90;58.70;;;;;;5022820;28;20355;-59
2022/11/20 06:20:20;;;;;;;2.73;2.53;;;11.90;58.70;;;;;;5022499;28;20814;-58
2022/11/20 06:22:45;;;;;;;3.73;2.97;;;12.00;58.70;;;;;;5022414;28;20467;-58
2022/11/20 06:25:11;;;;;;;2.87;2.57;;;12.00;58.50;;;;;;5020301;28;20432;-58
2022/11/20 06:27:37;;;;;;;2.40;2.20;;;12.00;58.80;;;;;;5027848;28;20197;-58
2022/11/20 06:30:03;;;;;;;3.60;2.43;;;12.00;58.80;;;;;;5022167;28;20197;-58
2022/11/20 06:32:29;;;;;;;7.13;3.20;;;12.00;58.50;;;;;;5024451;28;20198;-57
2022/11/20 06:34:54;;;;;;;4.30;2.00;;;11.90;58.90;;;;;;5028861;28;20454;-57
2022/11/20 06:37:20;;;;;;;3.80;3.20;;;12.00;59.80;;;;;;5030222;28;20562;-58
2022/11/20 06:39:46;;;;;;;2.67;2.47;;;12.20;60.50;;;;;;5026450;28;20212;-58
2022/11/20 06:42:11;;;;;;;3.17;2.67;;;12.30;59.80;;;;;;5026408;28;20200;-57
2022/11/20 06:44:37;;;;;;;2.97;2.30;;;12.30;59.00;;;;;;5031008;28;20197;-57
2022/11/20 06:47:02;;;;;;;3.90;2.70;;;12.40;59.10;;;;;;5031298;28;20194;-57
2022/11/20 06:49:28;;;;;;;2.53;2.33;;;12.50;59.10;;;;;;5030067;28;20194;-58
2022/11/20 06:51:53;;;;;;;2.90;2.57;;;12.60;58.50;;;;;;5028611;28;20204;-58
2022/11/20 06:54:19;;;;;;;2.53;2.33;;;12.70;58.30;;;;;;5023678;28;21912;-58
2022/11/20 06:56:48;;;;;;;2.50;2.17;;;12.80;58.10;;;;;;5032640;28;20343;-58
2022/11/20 06:59:14;;;;;;;3.33;2.97;;;12.70;57.60;;;;;;5027983;28;20311;-59
2022/11/20 07:01:39;;;;;;;2.90;2.40;;;12.80;57.80;;;;;;5029161;28;20919;-58
2022/11/20 07:04:05;;;;;;;5.00;2.40;;;12.90;57.80;;;;;;5026838;28;20201;-58
2022/11/20 07:06:30;;;;;;;2.13;1.97;;;12.90;57.60;;;;;;5027544;28;20185;-59
2022/11/20 07:08:56;;;;;;;2.87;2.47;;;13.00;57.70;;;;;;5029850;28;20568;-59
2022/11/20 07:11:22;;;;;;;5.17;2.03;;;13.10;57.90;;;;;;5036416;28;20190;-58
2022/11/20 07:13:48;;;;;;;1.97;1.87;;;13.10;57.30;;;;;;5034265;28;20439;-59
2022/11/20 07:16:14;;;;;;;2.30;2.10;;;13.10;56.90;;;;;;5030287;28;20451;-59
2022/11/20 07:18:40;;;;;;;2.37;2.17;;;13.00;56.30;;;;;;5025066;28;20256;-59
2022/11/20 07:21:08;;;;;;;2.40;2.20;;;12.90;56.40;;;;;;5025128;28;20229;-59
2022/11/20 07:23:34;;;;;;;2.10;1.93;;;12.90;56.60;;;;;;5026673;28;20228;-59
2022/11/20 07:26:07;;;;;;;2.90;2.70;;;12.90;56.70;;;;;;5026173;28;20440;-59
2022/11/20 07:28:33;;;;;;;3.67;2.73;;;12.90;56.80;;;;;;5034215;28;20448;-59
2022/11/20 07:30:59;;;;;;;3.20;2.93;;;13.00;56.80;;;;;;5028679;28;20439;-59
2022/11/20 07:33:24;;;;;;;2.83;2.20;;;13.10;56.60;;;;;;5024246;28;20673;-59
2022/11/20 07:35:50;;;;;;;2.87;2.43;;;13.00;56.30;;;;;;5025572;28;20193;-59
2022/11/20 07:38:15;;;;;;;3.50;2.90;;;13.10;56.40;;;;;;5025928;28;20260;-59
2022/11/20 07:40:41;;;;;;;2.83;2.20;;;13.10;56.70;;;;;;5026158;28;20201;-59
2022/11/20 07:43:06;;;;;;;2.90;2.43;;;13.20;56.60;;;;;;5026287;28;20209;-58
2022/11/20 07:45:32;;;;;;;3.20;2.30;;;13.20;56.50;;;;;;5028658;28;20585;-59
2022/11/20 07:47:58;;;;;;;2.13;2.03;;;13.20;56.50;;;;;;5029588;28;20197;-59
2022/11/20 07:50:23;;;;;;;2.73;2.53;;;13.30;56.50;;;;;;5038200;28;20225;-59
2022/11/20 07:52:49;;;;;;;2.10;1.90;;;13.20;56.00;;;;;;5028509;28;20343;-54
2022/11/20 07:57:58;;;;;;;3.23;2.43;;;13.00;56.30;;;;;;5073498;23;20263;-61
2022/11/20 08:00:25;;;;;;;2.53;2.33;;;13.00;56.10;;;;;;5042142;28;20478;-60
2022/11/20 08:02:51;;;;;;;2.87;2.67;;;13.00;56.40;;;;;;5047952;28;20176;-60
2022/11/20 08:05:17;;;;;;;3.07;2.57;;;12.80;56.70;;;;;;5049473;28;20509;-60
2022/11/20 08:07:43;;;;;;;2.40;2.20;;;12.90;56.80;;;;;;5043539;28;20197;-61
2022/11/20 08:10:12;;;;;;;2.90;2.57;;;12.80;56.90;;;;;;5043267;28;20558;-59
2022/11/20 08:15:32;;;;;;;2.90;2.70;;;12.60;57.40;;;;;;5040757;28;21011;-57
2022/11/20 08:18:05;;;;;;;2.33;2.20;;;12.60;57.60;;;;;;5043205;28;20486;-57
2022/11/20 08:20:31;;;;;;;3.37;2.63;;;12.50;57.50;;;;;;5044483;28;20431;-60
2022/11/20 08:23:01;;;;;;;3.40;2.43;;;12.50;57.60;;;;;;5046074;28;20434;-58
2022/11/20 08:25:28;;;;;;;2.10;1.90;;;12.50;57.60;;;;;;5043159;28;20200;-57
2022/11/20 08:27:56;;;;;;;2.93;2.63;;;12.50;57.60;;;;;;5043889;28;20459;-58
2022/11/20 08:30:22;;;;;;;3.20;2.33;;;12.20;57.90;;;;;;5041211;28;20438;-57
2022/11/20 08:32:47;;;;;;;2.93;2.60;;;12.10;58.30;;;;;;5046483;28;20537;-58
2022/11/20 08:35:13;;;;;;;4.10;2.50;;;12.00;58.60;;;;;;5044906;28;20272;-57
2022/11/20 08:37:41;;;;;;;3.80;2.07;;;12.00;58.90;;;;;;5047642;28;20249;-58
2022/11/20 08:40:11;;;;;;;4.37;2.23;;;11.90;59.10;;;;;;5044816;28;20193;-58
2022/11/20 08:42:36;;;;;;;3.10;2.40;;;11.90;59.30;;;;;;5045337;28;20449;-58
2022/11/20 08:45:02;;;;;;;4.27;2.70;;;12.10;59.40;;;;;;5044342;28;20431;-58
2022/11/20 08:47:28;;;;;;;4.13;2.40;;;12.10;59.30;;;;;;5045497;28;20200;-58
2022/11/20 08:49:53;;;;;;;2.50;2.30;;;12.10;59.30;;;;;;5044990;28;20443;-58
2022/11/20 08:52:19;;;;;;;3.13;2.60;;;12.30;59.10;;;;;;5049890;28;20213;-58
2022/11/20 08:54:45;;;;;;;2.13;1.97;;;12.20;59.20;;;;;;5051480;28;20200;-59
2022/11/20 08:57:11;;;;;;;2.00;1.70;;;12.10;59.00;;;;;;5046869;28;20474;-58
2022/11/20 08:59:37;;;;;;;1.80;1.70;;;11.90;59.30;;;;;;5047555;28;20482;-58
2022/11/20 09:02:02;;;;;;;2.50;2.07;;;12.00;59.50;;;;;;5047607;28;20582;-58
2022/11/20 09:04:28;;;;;;;2.00;1.90;;;11.90;59.70;;;;;;5048739;28;20298;-58
2022/11/20 09:06:54;;;;;;;2.10;1.90;;;12.20;59.70;;;;;;5046022;28;20847;-58
2022/11/20 09:09:20;;;;;;;4.23;2.47;;;12.30;59.60;;;;;;5053218;28;20470;-58
2022/11/20 09:11:45;;;;;;;2.00;1.70;;;12.10;59.40;;;;;;5052527;28;20682;-58
2022/11/20 09:14:11;;;;;;;2.50;1.83;;;11.80;59.50;;;;;;5050191;28;20196;-58
2022/11/20 09:16:36;;;;;;;2.50;1.60;;;11.80;60.20;;;;;;5051534;28;20193;-58
2022/11/20 09:19:02;;;;;;;1.80;1.70;;;11.80;60.50;;;;;;5052073;28;20224;-58
2022/11/20 09:21:27;;;;;;;2.03;1.83;;;11.90;60.50;;;;;;5048441;28;20283;-58
2022/11/20 09:23:53;;;;;;;1.73;1.63;;;11.90;60.30;;;;;;5050212;28;20874;-58
2022/11/20 09:26:19;;;;;;;3.70;1.50;;;11.70;60.30;;;;;;5051888;28;20284;-58
2022/11/20 09:28:44;;;;;;;1.60;1.50;;;11.50;60.70;;;;;;5051840;28;20311;-58
2022/11/20 09:31:36;;;;;;;1.27;1.27;;;11.50;61.00;;;;;;5051708;28;20786;-58
2022/11/20 09:34:02;;;;;;;1.57;1.47;;;11.60;61.20;;;;;;5044660;28;20208;-58
2022/11/20 09:36:28;;;;;;;1.90;1.70;;;11.70;61.00;;;;;;5051734;28;20443;-58
2022/11/20 09:38:54;;;;;;;2.07;1.83;;;11.60;60.80;;;;;;5052822;28;20294;-58
2022/11/20 09:41:50;;;;;;;2.60;2.30;;;11.50;61.30;;;;;;5053262;28;20189;-58
2022/11/20 09:44:24;;;;;;;1.90;1.67;;;11.60;62.20;;;;;;5051417;28;20193;-58
2022/11/20 09:47:14;;;;;;;2.67;2.30;;;11.40;61.90;;;;;;5050469;28;20455;-58
2022/11/20 09:49:56;;;;;;;3.73;3.03;;;11.40;62.10;;;;;;5050892;28;20443;-58
2022/11/20 09:52:39;;;;;;;2.30;1.37;;;11.50;62.40;;;;;;5050620;28;20476;-58
2022/11/20 09:55:10;;;;;;;2.20;1.50;;;11.60;62.70;;;;;;5051295;28;20423;-58
2022/11/20 09:57:39;;;;;;;1.27;1.10;;;11.80;62.10;;;;;;5045497;28;20471;-59
2022/11/20 10:00:10;;;;;;;1.50;1.40;;;11.90;61.80;;;;;;5045674;28;20446;-58
2022/11/20 10:03:02;;;;;;;1.30;1.20;;;11.80;61.80;;;;;;5039906;28;20534;-58
2022/11/20 10:05:48;;;;;;;1.43;1.33;;;11.70;61.20;;;;;;5036504;28;21097;-58
2022/11/20 10:08:43;;;;;;;1.40;1.20;;;11.50;62.30;;;;;;5045687;28;20447;-58
2022/11/20 10:11:42;;;;;;;1.20;1.10;;;11.50;62.50;;;;;;5044383;28;21113;-58
2022/11/20 10:14:28;;;;;;;1.47;1.37;;;11.70;62.20;;;;;;5014235;28;20451;-58
2022/11/20 10:17:15;;;;;;;1.10;1.00;;;11.70;61.80;;;;;;5045046;28;20458;-58
2022/11/20 10:19:46;;;;;;;1.40;1.27;;;11.50;61.60;;;;;;5043617;28;20953;-57
2022/11/20 10:22:14;;;;;;;1.30;1.20;;;11.40;63.60;;;;;;5045547;28;20509;-59
2022/11/20 10:24:40;;;;;;;1.20;1.10;;;11.50;63.90;;;;;;5042010;28;20451;-58
2022/11/20 10:27:21;;;;;;;1.40;1.17;;;11.50;64.20;;;;;;5044535;28;20533;-58
2022/11/20 10:30:00;;;;;;;1.30;1.20;;;11.60;64.00;;;;;;5043510;28;20189;-58
2022/11/20 10:32:33;;;;;;;1.30;1.20;;;12.00;63.60;;;;;;5045913;28;21056;-59
2022/11/20 10:35:21;;;;;;;1.77;0.90;;;12.10;63.30;;;;;;5039206;28;20976;-58
2022/11/20 10:38:08;;;;;;;1.30;1.20;;;12.00;62.30;;;;;;5048605;28;20592;-59
2022/11/20 10:40:39;;;;;;;1.27;1.17;;;11.90;63.30;;;;;;5012692;28;20458;-58
2022/11/20 10:43:15;;;;;;;2.77;1.80;;;11.90;63.10;;;;;;5040714;28;20439;-59
2022/11/20 10:46:04;;;;;;;1.40;1.30;;;11.80;64.70;;;;;;5048946;28;20937;-59
2022/11/20 10:48:32;;;;;;;1.40;1.30;;;11.60;66.40;;;;;;5043285;28;20446;-60
2022/11/20 10:51:11;;;;;;;2.70;1.20;;;11.50;67.40;;;;;;5045157;28;20431;-59
2022/11/20 10:53:48;;;;;;;1.27;1.17;;;11.80;66.90;;;;;;5047079;28;20469;-59
2022/11/20 10:56:33;;;;;;;1.00;1.00;;;11.50;66.30;;;;;;5044392;28;20473;-60
2022/11/20 10:58:58;;;;;;;1.00;0.90;;;11.60;67.30;;;;;;5048744;28;20494;-61
2022/11/20 11:01:26;;;;;;;1.33;1.10;;;11.60;67.90;;;;;;5045707;28;20566;-59
2022/11/20 11:03:54;;;;;;;1.17;1.07;;;11.50;66.80;;;;;;5044022;28;20201;-59
2022/11/20 11:06:39;;;;;;;1.53;1.30;;;11.10;67.90;;;;;;5043345;28;21004;-59
2022/11/20 11:09:13;;;;;;;1.50;1.40;;;11.10;69.20;;;;;;5046137;28;20937;-60
2022/11/20 11:11:39;;;;;;;1.10;1.00;;;11.20;69.50;;;;;;5045736;28;20447;-59
2022/11/20 11:14:10;;;;;;;1.20;1.10;;;11.60;68.90;;;;;;5048363;28;20447;-59
2022/11/20 11:16:53;;;;;;;1.37;1.27;;;11.90;67.60;;;;;;5046812;28;20435;-59
2022/11/20 11:19:18;;;;;;;1.27;1.10;;;11.90;67.10;;;;;;5048468;28;20498;-59
2022/11/20 11:21:48;;;;;;;3.37;1.40;;;11.70;66.70;;;;;;5047603;28;20463;-59
2022/11/20 11:24:27;;;;;;;1.23;1.13;;;11.90;67.00;;;;;;5048302;28;20184;-59
2022/11/20 11:27:04;;;;;;;2.67;1.90;;;12.00;66.80;;;;;;5047549;28;20454;-59
2022/11/20 11:29:30;;;;;;;2.20;1.90;;;11.80;66.90;;;;;;5047939;28;20469;-59
2022/11/20 11:32:18;;;;;;;2.47;1.90;;;11.80;67.20;;;;;;5048344;28;20439;-60
2022/11/20 11:34:44;;;;;;;1.60;1.50;;;12.00;67.10;;;;;;5050127;28;20478;-59
2022/11/20 11:37:18;;;;;;;1.67;1.57;;;12.10;66.70;;;;;;5047741;28;20434;-59
2022/11/20 11:39:46;;;;;;;2.63;1.73;;;12.20;66.50;;;;;;5047352;28;20223;-59
2022/11/20 11:42:17;;;;;;;1.73;1.63;;;12.20;66.40;;;;;;5049295;28;20945;-59
2022/11/20 11:45:06;;;;;;;1.83;1.73;;;12.20;67.20;;;;;;5045826;28;20796;-59
2022/11/20 11:47:44;;;;;;;4.27;1.80;;;12.30;68.30;;;;;;5048969;28;20452;-59
2022/11/20 11:50:13;;;;;;;1.50;1.40;;;12.50;68.30;;;;;;5049672;28;21061;-59
2022/11/20 11:53:17;;;;;;;2.40;1.60;;;12.50;67.70;;;;;;5048914;28;20477;-60
2022/11/20 11:56:01;;;;;;;1.63;1.50;;;12.50;66.30;;;;;;5047945;28;20486;-60
2022/11/20 11:58:38;;;;;;;1.60;1.47;;;12.60;66.10;;;;;;5048893;28;20487;-59
2022/11/20 12:01:26;;;;;;;1.40;1.30;;;12.70;66.70;;;;;;5046818;28;20443;-59
2022/11/20 12:04:29;;;;;;;1.77;1.37;;;12.80;64.00;;;;;;5046587;28;20450;-59
2022/11/20 12:07:10;;;;;;;3.10;1.50;;;13.10;64.10;;;;;;5045399;28;20462;-59
2022/11/20 12:09:42;;;;;;;1.43;1.33;;;13.30;62.30;;;;;;5043280;28;20545;-59
2022/11/20 12:12:38;;;;;;;1.60;1.50;;;13.30;62.00;;;;;;5047497;28;20443;-59
2022/11/20 12:15:09;;;;;;;1.73;1.53;;;13.20;60.70;;;;;;5046199;28;20592;-59
2022/11/20 12:17:35;;;;;;;2.63;1.73;;;13.50;61.80;;;;;;5048549;28;20517;-60
2022/11/20 12:20:00;;;;;;;2.90;1.53;;;13.60;61.50;;;;;;5047778;28;20538;-59
2022/11/20 12:22:52;;;;;;;1.53;1.40;;;13.50;61.10;;;;;;5047973;28;20207;-59
2022/11/20 12:25:24;;;;;;;8.37;2.03;;;13.70;60.90;;;;;;5045567;28;20196;-59
2022/11/20 12:28:14;;;;;;;2.00;1.70;;;13.70;60.20;;;;;;5053973;28;20484;-59
2022/11/20 12:31:04;;;;;;;4.80;1.50;;;13.70;59.60;;;;;;5051417;28;20454;-59
2022/11/20 12:33:48;;;;;;;2.30;1.83;;;14.00;59.40;;;;;;5054590;28;20514;-60
2022/11/20 12:36:25;;;;;;;5.10;1.80;;;14.30;59.30;;;;;;5041830;28;21802;-59
2022/11/20 12:39:03;;;;;;;2.77;1.53;;;14.40;59.90;;;;;;5048647;28;20521;-60
2022/11/20 12:45:21;;;;;;;3.07;1.57;;;14.70;57.30;;;;;;5048694;28;20450;-60
2022/11/20 12:48:14;;;;;;;2.53;1.23;;;14.40;55.20;;;;;;5051356;28;20438;-60
2022/11/20 12:50:54;;;;;;;2.37;1.40;;;14.20;54.20;;;;;;5049704;28;20442;-60
2022/11/20 12:54:17;;;;;;;1.57;1.17;;;14.00;53.90;;;;;;5053420;28;20450;-60
2022/11/20 12:57:00;;;;;;;1.20;0.97;;;14.10;53.90;;;;;;4936365;29;21007;-60
2022/11/20 12:59:49;;;;;;;2.90;1.83;;;14.00;52.70;;;;;;4927501;29;20957;-59
2022/11/20 13:02:41;;;;;;;2.23;1.23;;;13.90;52.60;;;;;;5028195;28;20783;-59
2022/11/20 13:05:19;;;;;;;1.90;1.73;;;13.80;52.00;;;;;;5046492;28;20466;-59
2022/11/20 13:07:47;;;;;;;1.13;1.13;;;13.70;52.50;;;;;;5052722;28;20445;-59
2022/11/20 13:10:33;;;;;;;1.63;1.07;;;13.80;53.10;;;;;;5049390;28;20442;-59
2022/11/20 13:13:16;;;;;;;1.40;1.27;;;13.70;52.80;;;;;;5053888;28;20438;-59